Time;durP1;ratioP1;P1;durP2;ratioP2;P2;SDS_P1;SDS_P2;PMS_P1;PMS_P2;Temp;Humidity;BMP_temperature;BMP_pressure;BME280_temperature;BME280_humidity;BME280_pressure;Samples;Min_cycle;Max_cycle;Signal;HPM_P1;HPM_P2
2022/12/16 00:00:30;;;;;;;2.72;0.98;;;20.90;91.30;;;;;;5090468;28;20199;-80
2022/12/16 00:03:02;;;;;;;7.38;1.17;;;20.70;91.30;;;;;;5089020;28;20202;-80
2022/12/16 00:05:36;;;;;;;2.67;0.88;;;20.60;92.10;;;;;;5090195;28;20724;-79
2022/12/16 00:08:10;;;;;;;3.72;0.82;;;20.90;93.00;;;;;;5089583;28;20202;-79
2022/12/16 00:10:53;;;;;;;3.78;1.10;;;21.10;92.20;;;;;;5070592;28;20199;-79
2022/12/16 00:13:24;;;;;;;5.93;0.90;;;21.30;91.10;;;;;;5076821;28;20244;-79
2022/12/16 00:15:56;;;;;;;3.40;0.90;;;21.20;90.40;;;;;;5090109;28;20241;-78
2022/12/16 00:18:27;;;;;;;4.57;0.70;;;21.30;90.90;;;;;;5088949;28;20199;-79
2022/12/16 00:21:00;;;;;;;4.05;0.95;;;21.30;90.40;;;;;;5090365;28;20278;-79
2022/12/16 00:23:32;;;;;;;2.85;0.95;;;21.10;90.90;;;;;;5090398;28;20662;-78
2022/12/16 00:26:03;;;;;;;4.45;1.48;;;21.20;90.40;;;;;;5093612;28;20219;-80
2022/12/16 00:28:34;;;;;;;3.90;1.00;;;21.40;91.30;;;;;;5094341;28;20442;-79
2022/12/16 00:31:05;;;;;;;4.65;1.30;;;21.60;90.10;;;;;;5093986;28;20234;-79
2022/12/16 00:33:36;;;;;;;2.65;0.88;;;21.50;90.60;;;;;;5094182;28;20203;-79
2022/12/16 00:36:10;;;;;;;4.97;0.80;;;21.60;90.10;;;;;;5081379;28;20563;-79
2022/12/16 00:38:41;;;;;;;4.03;0.85;;;21.70;89.30;;;;;;5074297;28;20196;-79
2022/12/16 00:41:11;;;;;;;3.45;0.90;;;21.60;90.00;;;;;;5074707;28;20206;-78
2022/12/16 00:43:45;;;;;;;3.83;1.30;;;21.50;90.30;;;;;;5075721;28;20681;-79
2022/12/16 00:46:16;;;;;;;3.92;1.30;;;21.70;91.00;;;;;;5073694;28;20257;-79
2022/12/16 00:48:47;;;;;;;4.45;1.08;;;21.70;90.50;;;;;;5091513;28;20207;-78
2022/12/16 00:51:20;;;;;;;2.17;0.90;;;21.90;90.60;;;;;;5093817;28;20658;-79
2022/12/16 00:53:51;;;;;;;5.32;1.00;;;22.00;90.00;;;;;;5092827;28;20342;-79
2022/12/16 00:56:22;;;;;;;3.08;0.82;;;22.00;89.00;;;;;;5093897;28;20662;-79
2022/12/16 00:58:53;;;;;;;5.72;1.08;;;21.80;89.70;;;;;;5093673;28;20199;-79
2022/12/16 01:01:24;;;;;;;3.63;0.90;;;21.90;90.50;;;;;;5093634;28;20218;-79
2022/12/16 01:03:58;;;;;;;2.75;1.10;;;22.00;90.10;;;;;;5093402;28;20532;-79
2022/12/16 01:06:31;;;;;;;5.03;0.95;;;22.00;90.70;;;;;;5093381;28;20291;-79
2022/12/16 01:09:02;;;;;;;2.90;0.80;;;22.00;90.90;;;;;;5082784;28;20684;-79
2022/12/16 01:11:33;;;;;;;4.72;1.20;;;22.00;91.90;;;;;;5093584;28;20329;-79
2022/12/16 01:14:04;;;;;;;2.42;0.90;;;21.90;91.60;;;;;;5093512;28;20559;-79
2022/12/16 01:16:35;;;;;;;5.05;1.10;;;21.70;90.50;;;;;;5093056;28;20229;-79
2022/12/16 01:19:06;;;;;;;5.47;1.02;;;21.50;88.70;;;;;;5093477;28;20203;-79
2022/12/16 01:21:38;;;;;;;4.47;0.80;;;21.30;90.70;;;;;;5093432;28;20203;-79
2022/12/16 01:24:14;;;;;;;7.85;1.08;;;21.20;90.90;;;;;;5085676;28;20650;-79
2022/12/16 01:26:47;;;;;;;4.80;1.20;;;21.00;90.30;;;;;;5073479;28;20269;-79
2022/12/16 01:29:18;;;;;;;4.53;1.02;;;20.90;91.80;;;;;;5072913;28;20200;-79
2022/12/16 01:31:49;;;;;;;3.95;1.08;;;20.70;92.10;;;;;;5090949;28;20567;-79
2022/12/16 01:34:20;;;;;;;7.45;1.05;;;20.90;92.10;;;;;;5093042;28;20206;-79
2022/12/16 01:36:53;;;;;;;4.15;1.00;;;20.90;91.90;;;;;;5093521;28;20689;-79
2022/12/16 01:39:26;;;;;;;5.43;1.27;;;21.00;92.20;;;;;;5092799;28;20565;-79
2022/12/16 01:41:56;;;;;;;4.18;1.00;;;21.20;92.50;;;;;;5091959;28;20248;-79
2022/12/16 01:44:28;;;;;;;9.40;1.30;;;21.30;92.60;;;;;;5093436;28;20199;-79
2022/12/16 01:47:02;;;;;;;3.95;1.35;;;21.30;91.20;;;;;;5093016;28;20571;-79
2022/12/16 01:49:38;;;;;;;4.05;1.10;;;21.20;91.40;;;;;;5093502;28;20285;-79
2022/12/16 01:52:17;;;;;;;4.47;1.52;;;21.20;91.90;;;;;;5093559;28;20218;-78
2022/12/16 01:54:51;;;;;;;3.70;1.20;;;21.20;91.90;;;;;;5093082;28;20226;-80
2022/12/16 01:57:28;;;;;;;6.63;1.27;;;21.10;90.60;;;;;;5091960;28;20301;-79
2022/12/16 01:59:59;;;;;;;3.67;0.85;;;21.00;90.60;;;;;;5093181;28;20217;-79
2022/12/16 02:02:34;;;;;;;4.97;1.33;;;21.00;90.80;;;;;;5092655;28;20283;-81
2022/12/16 02:05:24;;;;;;;3.90;1.13;;;21.20;91.10;;;;;;5092508;28;20202;-79
2022/12/16 02:08:03;;;;;;;6.75;1.63;;;21.10;91.30;;;;;;5084220;28;20228;-78
2022/12/16 02:10:47;;;;;;;4.07;1.15;;;21.10;92.30;;;;;;5072480;28;20204;-79
2022/12/16 02:13:27;;;;;;;3.78;1.33;;;21.10;92.50;;;;;;5083168;28;20244;-79
2022/12/16 02:16:10;;;;;;;6.75;2.45;;;21.30;92.30;;;;;;5072476;28;20314;-79
2022/12/16 02:18:51;;;;;;;4.75;1.90;;;21.30;93.40;;;;;;5089270;28;20225;-81
2022/12/16 02:21:47;;;;;;;6.70;2.00;;;21.50;93.00;;;;;;5081344;28;20180;-80
2022/12/16 02:24:48;;;;;;;5.80;1.08;;;21.80;92.60;;;;;;5075645;28;20663;-79
2022/12/16 02:27:53;;;;;;;5.25;2.25;;;22.10;91.50;;;;;;5076057;28;20245;-80
2022/12/16 02:30:47;;;;;;;3.28;1.17;;;22.30;91.00;;;;;;5090865;28;20191;-80
2022/12/16 02:33:34;;;;;;;5.55;1.23;;;22.40;90.40;;;;;;5102027;28;20278;-80
2022/12/16 02:36:14;;;;;;;2.70;1.10;;;22.40;90.20;;;;;;5083367;28;20542;-79
2022/12/16 02:38:58;;;;;;;4.15;1.05;;;22.70;90.70;;;;;;5096234;28;20207;-80
2022/12/16 02:41:41;;;;;;;4.47;1.10;;;22.70;88.50;;;;;;5079627;28;20192;-79
2022/12/16 02:44:18;;;;;;;3.13;1.10;;;22.60;88.00;;;;;;5075840;28;20259;-80
2022/12/16 02:47:02;;;;;;;6.53;1.20;;;22.60;88.00;;;;;;5084714;28;20249;-80
2022/12/16 02:49:54;;;;;;;3.83;1.23;;;22.90;90.60;;;;;;5096324;28;20191;-80
2022/12/16 02:52:27;;;;;;;4.10;1.20;;;23.10;90.30;;;;;;5096121;28;20202;-80
2022/12/16 02:55:01;;;;;;;5.18;1.17;;;23.20;88.40;;;;;;5099629;28;20286;-79
2022/12/16 02:58:10;;;;;;;4.35;1.20;;;23.40;86.20;;;;;;5097107;28;20582;-79
2022/12/16 03:00:51;;;;;;;7.63;1.73;;;23.40;84.80;;;;;;5035152;28;20232;-80
2022/12/16 03:03:32;;;;;;;5.38;1.33;;;23.30;85.70;;;;;;5036231;28;20193;-79
2022/12/16 03:06:05;;;;;;;5.93;1.38;;;23.40;84.70;;;;;;5072417;28;20202;-80
2022/12/16 03:08:39;;;;;;;4.72;1.48;;;23.20;84.90;;;;;;5077696;28;20195;-79
2022/12/16 03:11:10;;;;;;;4.95;1.50;;;23.30;85.30;;;;;;5092945;28;20239;-79
2022/12/16 03:13:45;;;;;;;8.25;1.70;;;23.40;86.60;;;;;;5093657;28;20195;-79
2022/12/16 03:16:18;;;;;;;4.45;1.20;;;23.30;88.30;;;;;;5104209;28;20222;-81
2022/12/16 03:18:56;;;;;;;7.07;3.45;;;23.50;88.20;;;;;;5094758;28;20201;-79
2022/12/16 03:21:31;;;;;;;12.45;2.65;;;23.50;87.40;;;;;;5097474;28;20199;-80
2022/12/16 03:24:05;;;;;;;6.72;1.45;;;23.70;87.00;;;;;;5096296;28;20205;-80
2022/12/16 03:26:42;;;;;;;6.35;1.50;;;23.90;86.40;;;;;;5096755;28;20259;-80
2022/12/16 03:29:16;;;;;;;7.00;1.77;;;23.90;86.10;;;;;;5098295;28;20199;-80
2022/12/16 03:31:52;;;;;;;5.10;1.20;;;23.70;85.90;;;;;;5099261;28;20327;-80
2022/12/16 03:34:34;;;;;;;11.50;1.40;;;24.00;87.30;;;;;;5096781;28;20234;-83
2022/12/16 03:37:07;;;;;;;4.50;1.20;;;23.90;84.50;;;;;;5082241;28;20192;-80
2022/12/16 03:39:43;;;;;;;8.43;1.45;;;23.70;86.10;;;;;;5097246;28;20206;-80
2022/12/16 03:42:15;;;;;;;4.68;1.48;;;23.90;88.30;;;;;;5092068;28;20202;-79
2022/12/16 03:44:48;;;;;;;7.10;1.20;;;23.90;85.20;;;;;;5088092;28;20265;-80
2022/12/16 03:47:18;;;;;;;5.70;1.30;;;23.90;86.50;;;;;;5075011;28;20232;-79
2022/12/16 03:49:54;;;;;;;5.93;1.35;;;23.80;86.00;;;;;;5079700;28;20195;-79
2022/12/16 03:52:26;;;;;;;4.75;1.30;;;23.80;85.70;;;;;;5095488;28;20282;-80
2022/12/16 03:54:57;;;;;;;3.78;1.13;;;23.70;85.60;;;;;;5096608;28;20206;-79
2022/12/16 03:57:28;;;;;;;6.85;1.45;;;23.80;87.50;;;;;;5099249;28;20267;-79
2022/12/16 03:59:59;;;;;;;7.30;1.40;;;23.90;87.00;;;;;;5093226;28;20571;-79
2022/12/16 04:02:30;;;;;;;4.72;1.05;;;24.00;83.30;;;;;;5090583;28;20195;-79
2022/12/16 04:05:03;;;;;;;3.35;1.23;;;24.10;82.30;;;;;;5104816;28;20630;-80
2022/12/16 04:07:34;;;;;;;4.72;1.05;;;24.00;82.50;;;;;;5097341;28;20219;-79
2022/12/16 04:10:06;;;;;;;7.18;1.42;;;24.10;82.90;;;;;;5090875;28;20230;-80
2022/12/16 04:29:28;;;;;;;6.22;1.20;;;24.10;82.90;;;;;;5090177;28;20276;-81
2022/12/16 04:32:00;;;;;;;4.72;1.25;;;24.40;82.00;;;;;;5096555;28;20333;-79
2022/12/16 04:34:35;;;;;;;3.88;0.88;;;24.00;82.60;;;;;;5092862;28;20633;-80
